Acarape, Brazil
Current Conditions -  °F | °C
As of 7:00 AM on Monday 22 Dec 2014 (Local Time) from SBFZ Reporting Station
Clear Clear  
Wind Chill: 81°   Ceiling: Unl
Heat Index: 83°   Visibility: 6mi
Dew Point: 66°   Wind: 17mph
Humidity: 61%   Direction: 100°E
Pressure: 29.88"   Gusts: NA
Location:  4.22°S, 38.7°W
Report Text: SBFZ 221000Z 10015KT CAVOK 27/19 Q1012
Loading
Personal Weather Stations






























Interactive Weather Map New forecast layout! Learn more

10-Day Weather Forecast

Advertisements
Track Severe Weather on mobile